Time;durP1;ratioP1;P1;durP2;ratioP2;P2;SDS_P1;SDS_P2;PMS_P1;PMS_P2;Temp;Humidity;BMP_temperature;BMP_pressure;BME280_temperature;BME280_humidity;BME280_pressure;Samples;Min_cycle;Max_cycle;Signal;HPM_P1;HPM_P2
2022/08/28 00:00:18;;;;;;;1.63;0.90;;;13.90;98.40;;;;;;5060898;28;20082;-75
2022/08/28 00:02:45;;;;;;;2.60;1.02;;;13.90;98.50;;;;;;5097986;28;20040;-75
2022/08/28 00:05:11;;;;;;;2.70;0.93;;;13.80;98.50;;;;;;5082794;28;20040;-76
2022/08/28 00:07:37;;;;;;;3.53;1.08;;;13.80;98.60;;;;;;5083111;28;20421;-75
2022/08/28 00:10:05;;;;;;;2.42;1.13;;;13.70;98.50;;;;;;5102181;28;20032;-75
2022/08/28 00:12:30;;;;;;;1.63;0.60;;;13.80;98.70;;;;;;5086997;28;20067;-75
2022/08/28 00:14:56;;;;;;;2.47;0.80;;;13.70;98.60;;;;;;5083333;28;20067;-75
2022/08/28 00:17:22;;;;;;;2.95;1.08;;;13.70;98.50;;;;;;5102390;28;20123;-75
2022/08/28 00:19:48;;;;;;;2.38;1.02;;;13.70;98.60;;;;;;5098371;28;20588;-75
2022/08/28 00:22:13;;;;;;;2.45;1.00;;;13.60;98.70;;;;;;5086028;28;20048;-75
2022/08/28 00:24:41;;;;;;;1.45;0.90;;;13.60;98.70;;;;;;5081943;28;20058;-75
2022/08/28 00:29:51;;;;;;;2.13;0.70;;;13.60;98.80;;;;;;5098746;28;20040;-75
2022/08/28 00:32:17;;;;;;;2.22;1.00;;;13.60;98.90;;;;;;5083172;28;20039;-75
2022/08/28 00:34:43;;;;;;;1.70;0.88;;;13.60;98.80;;;;;;5085221;28;20081;-75
2022/08/28 00:37:08;;;;;;;3.85;0.95;;;13.60;98.70;;;;;;5085922;28;20044;-75
2022/08/28 00:39:34;;;;;;;2.90;1.10;;;13.60;98.80;;;;;;5085655;28;20046;-76
2022/08/28 00:42:00;;;;;;;2.58;1.08;;;13.60;98.90;;;;;;5101649;28;20040;-75
2022/08/28 00:44:27;;;;;;;3.35;1.30;;;13.60;98.90;;;;;;5084065;28;20047;-75
2022/08/28 00:46:55;;;;;;;2.30;1.00;;;13.60;99.00;;;;;;5084064;28;20052;-75
2022/08/28 00:49:24;;;;;;;1.80;0.82;;;13.50;99.00;;;;;;5084344;28;20043;-75
2022/08/28 00:52:06;;;;;;;1.42;0.90;;;13.50;99.10;;;;;;5080016;28;20474;-76
2022/08/28 00:54:36;;;;;;;1.80;0.98;;;13.50;99.10;;;;;;5083515;28;20043;-75
2022/08/28 00:57:05;;;;;;;2.25;1.25;;;13.50;99.20;;;;;;5083893;28;20048;-75
2022/08/28 00:59:32;;;;;;;1.90;0.80;;;13.50;99.10;;;;;;5082973;28;20493;-75
2022/08/28 01:01:58;;;;;;;1.55;0.75;;;13.50;99.10;;;;;;5081937;28;20039;-75
2022/08/28 01:04:27;;;;;;;3.65;0.70;;;13.50;99.10;;;;;;5083362;28;20035;-75
2022/08/28 01:06:57;;;;;;;2.50;1.00;;;13.40;99.10;;;;;;5082176;28;20063;-76
2022/08/28 01:09:26;;;;;;;2.60;1.00;;;13.40;99.30;;;;;;5080949;28;20495;-75
2022/08/28 01:11:57;;;;;;;1.08;0.57;;;13.40;99.40;;;;;;5068156;28;20032;-75
2022/08/28 01:14:25;;;;;;;2.38;1.10;;;13.40;99.40;;;;;;5067606;28;20434;-75
2022/08/28 01:16:54;;;;;;;4.10;1.13;;;13.30;99.40;;;;;;5099262;28;20485;-75
2022/08/28 01:19:29;;;;;;;1.67;0.75;;;13.30;99.50;;;;;;5063502;28;20035;-75
2022/08/28 01:21:58;;;;;;;;;;;13.30;99.50;;;;;;5084342;28;20063;-75
2022/08/28 01:24:24;;;;;;;1.33;0.82;;;13.30;99.90;;;;;;5079570;28;19923;-75
2022/08/28 01:26:50;;;;;;;3.53;0.95;;;13.30;99.60;;;;;;5083322;28;20044;-75
2022/08/28 01:29:16;;;;;;;2.95;1.23;;;13.20;99.50;;;;;;5084001;28;20028;-76
2022/08/28 01:31:42;;;;;;;2.53;1.17;;;13.20;99.50;;;;;;5100379;28;20080;-75
2022/08/28 01:34:11;;;;;;;3.28;0.68;;;13.20;99.60;;;;;;5098394;27;20040;-75
2022/08/28 01:36:37;;;;;;;3.42;0.70;;;13.20;99.70;;;;;;5084382;28;20067;-75
2022/08/28 01:39:07;;;;;;;1.75;0.80;;;13.10;99.70;;;;;;5079598;28;20055;-75
2022/08/28 01:41:34;;;;;;;1.88;0.75;;;13.10;99.60;;;;;;5093927;28;20028;-75
2022/08/28 01:44:00;;;;;;;1.63;0.70;;;13.10;99.50;;;;;;5082690;28;20051;-75
2022/08/28 01:46:25;;;;;;;1.77;0.82;;;13.10;99.50;;;;;;5080292;28;20036;-75
2022/08/28 01:48:51;;;;;;;6.68;1.00;;;13.10;99.70;;;;;;5066467;28;20074;-75
2022/08/28 01:51:17;;;;;;;0.70;0.47;;;13.20;99.50;;;;;;5083817;28;20123;-75
2022/08/28 01:53:42;;;;;;;1.33;0.75;;;13.20;99.50;;;;;;5065737;28;20032;-75
2022/08/28 01:56:12;;;;;;;1.52;0.68;;;13.20;99.50;;;;;;5083130;28;20179;-75
2022/08/28 01:58:38;;;;;;;1.25;0.60;;;13.10;99.60;;;;;;5083044;28;20105;-75
2022/08/28 02:01:13;;;;;;;1.30;0.57;;;13.10;99.60;;;;;;5083701;28;20037;-75
2022/08/28 02:03:41;;;;;;;1.88;0.82;;;13.10;99.70;;;;;;5081829;28;20024;-75
2022/08/28 02:06:08;;;;;;;1.65;0.60;;;13.10;99.60;;;;;;5097264;28;20565;-75
2022/08/28 02:08:35;;;;;;;1.67;0.95;;;13.10;99.60;;;;;;5098217;28;20118;-75
2022/08/28 02:11:01;;;;;;;1.38;0.70;;;13.10;99.70;;;;;;5083690;28;20040;-75
2022/08/28 02:13:27;;;;;;;1.35;0.60;;;13.00;99.70;;;;;;5098170;28;20035;-75
2022/08/28 02:15:53;;;;;;;1.85;0.88;;;13.00;99.80;;;;;;5083760;28;20109;-75
2022/08/28 02:18:19;;;;;;;1.23;0.57;;;13.00;99.90;;;;;;5081288;28;20710;-75
2022/08/28 02:20:45;;;;;;;1.10;0.63;;;12.90;99.90;;;;;;5082887;28;20039;-75
2022/08/28 02:23:12;;;;;;;1.17;0.70;;;12.90;99.90;;;;;;5098841;28;20063;-75
2022/08/28 02:25:38;;;;;;;1.60;0.80;;;12.90;99.90;;;;;;5098805;28;20054;-75
2022/08/28 02:28:04;;;;;;;3.30;1.15;;;12.90;99.90;;;;;;5098838;28;20043;-75
2022/08/28 02:30:29;;;;;;;1.15;0.70;;;12.90;99.90;;;;;;5083933;28;20047;-75
2022/08/28 02:32:55;;;;;;;1.40;0.75;;;12.90;99.90;;;;;;5082548;28;20633;-75
2022/08/28 02:35:22;;;;;;;2.38;0.90;;;13.00;99.90;;;;;;5099990;28;20028;-74
2022/08/28 02:37:48;;;;;;;1.67;1.00;;;12.90;99.90;;;;;;5082027;28;20123;-75
2022/08/28 02:40:16;;;;;;;0.93;0.50;;;12.90;99.90;;;;;;5095344;28;20070;-75
2022/08/28 02:42:43;;;;;;;1.10;0.63;;;12.90;99.90;;;;;;5082364;28;20571;-74
2022/08/28 02:45:10;;;;;;;0.95;0.60;;;12.80;99.90;;;;;;5082950;28;20046;-74
2022/08/28 02:47:41;;;;;;;1.08;0.70;;;12.80;99.90;;;;;;5080453;28;20093;-74
2022/08/28 02:50:08;;;;;;;1.63;0.80;;;12.80;99.90;;;;;;5080751;28;20105;-74
2022/08/28 02:52:36;;;;;;;4.53;1.35;;;12.70;99.90;;;;;;5081621;28;20489;-75
2022/08/28 02:55:03;;;;;;;1.33;0.60;;;12.80;99.90;;;;;;5066851;28;20044;-74
2022/08/28 02:57:29;;;;;;;1.77;0.63;;;12.70;99.90;;;;;;5082712;28;20040;-74
2022/08/28 02:59:55;;;;;;;1.15;0.63;;;12.70;99.90;;;;;;5063391;28;20086;-74
2022/08/28 03:02:21;;;;;;;1.42;0.70;;;12.70;99.90;;;;;;5083339;28;20123;-74
2022/08/28 03:04:47;;;;;;;2.80;1.10;;;12.70;99.90;;;;;;5077392;28;20046;-74
2022/08/28 03:07:14;;;;;;;1.70;0.82;;;12.60;99.90;;;;;;5081088;28;20031;-74
2022/08/28 03:09:42;;;;;;;0.82;0.50;;;12.60;99.90;;;;;;5082504;28;20038;-74
2022/08/28 03:12:09;;;;;;;1.73;0.80;;;12.60;99.90;;;;;;5088655;28;20040;-74
2022/08/28 03:14:35;;;;;;;0.68;0.32;;;12.60;99.90;;;;;;5103298;28;20787;-74
2022/08/28 03:17:01;;;;;;;0.88;0.40;;;12.60;99.90;;;;;;5087237;28;20040;-74
2022/08/28 03:19:27;;;;;;;1.67;0.80;;;12.60;99.90;;;;;;5100872;28;20036;-74
2022/08/28 03:21:53;;;;;;;0.73;0.35;;;12.60;99.90;;;;;;5087194;28;20056;-74
2022/08/28 03:24:19;;;;;;;0.88;0.38;;;12.60;99.90;;;;;;5101805;28;20477;-74
2022/08/28 03:26:45;;;;;;;1.88;0.65;;;12.60;99.90;;;;;;5083157;28;20072;-74
2022/08/28 03:29:10;;;;;;;1.95;0.75;;;12.60;99.90;;;;;;5085820;28;20028;-74
2022/08/28 03:31:37;;;;;;;0.90;0.45;;;12.60;99.90;;;;;;5085824;28;20066;-74
2022/08/28 03:34:04;;;;;;;1.10;0.43;;;12.60;99.90;;;;;;5084075;28;20040;-74
2022/08/28 03:36:30;;;;;;;1.40;0.43;;;12.60;99.90;;;;;;5068356;28;20059;-74
2022/08/28 03:38:59;;;;;;;1.77;0.63;;;12.60;99.90;;;;;;5086882;28;20067;-74
2022/08/28 03:41:27;;;;;;;0.90;0.50;;;12.60;99.90;;;;;;5085466;28;20032;-74
2022/08/28 03:43:56;;;;;;;1.20;0.45;;;12.50;99.90;;;;;;5086110;28;20044;-74
2022/08/28 03:46:22;;;;;;;1.20;0.60;;;12.50;99.90;;;;;;5084174;28;20390;-74
2022/08/28 03:48:49;;;;;;;1.10;0.60;;;12.50;99.90;;;;;;5083460;28;20036;-74
2022/08/28 03:51:18;;;;;;;3.45;1.00;;;12.50;99.90;;;;;;5101105;28;20044;-74
2022/08/28 03:53:44;;;;;;;3.25;0.70;;;12.40;99.90;;;;;;5085805;28;20386;-74
2022/08/28 03:56:16;;;;;;;1.35;0.70;;;12.50;99.90;;;;;;5085939;28;20035;-74
2022/08/28 03:58:42;;;;;;;2.10;1.00;;;12.60;99.90;;;;;;5085488;28;20058;-74
2022/08/28 04:01:08;;;;;;;1.52;0.60;;;12.60;99.90;;;;;;5082688;28;20425;-74
2022/08/28 04:03:34;;;;;;;3.38;1.08;;;12.50;99.90;;;;;;5084618;28;20119;-74
2022/08/28 04:06:00;;;;;;;2.22;0.93;;;12.60;99.90;;;;;;5100360;28;20519;-74
2022/08/28 04:08:27;;;;;;;4.82;0.65;;;12.50;99.90;;;;;;5085271;28;20040;-74
2022/08/28 04:10:53;;;;;;;1.92;0.80;;;12.60;99.90;;;;;;5084317;28;20075;-74
2022/08/28 04:13:21;;;;;;;1.83;0.70;;;12.60;99.90;;;;;;5102358;28;20043;-74
2022/08/28 04:16:09;;;;;;;1.33;0.55;;;12.60;99.90;;;;;;5084462;28;20043;-74
2022/08/28 04:18:39;;;;;;;1.20;0.77;;;12.50;99.90;;;;;;5085256;28;20044;-74
2022/08/28 04:21:17;;;;;;;1.95;0.90;;;12.60;99.90;;;;;;5084150;28;20043;-74
2022/08/28 04:23:44;;;;;;;1.08;0.80;;;12.50;99.90;;;;;;5067253;28;20040;-74
2022/08/28 04:26:14;;;;;;;1.70;0.77;;;12.50;99.90;;;;;;5101791;28;20028;-74
2022/08/28 04:28:40;;;;;;;2.03;0.90;;;12.50;99.90;;;;;;5083887;28;20504;-74
2022/08/28 04:31:07;;;;;;;2.03;0.98;;;12.50;99.90;;;;;;5082674;28;20056;-74
2022/08/28 04:33:33;;;;;;;1.95;0.80;;;12.50;99.90;;;;;;5099862;28;20060;-74
2022/08/28 04:36:03;;;;;;;0.85;0.50;;;12.50;99.90;;;;;;5084713;28;20028;-74
2022/08/28 04:38:28;;;;;;;2.00;0.73;;;12.50;99.90;;;;;;5098291;28;20040;-74
2022/08/28 04:40:54;;;;;;;3.03;0.98;;;12.50;99.90;;;;;;5082427;28;20032;-74
2022/08/28 04:43:20;;;;;;;3.05;0.80;;;12.50;99.90;;;;;;5101050;28;20064;-74
2022/08/28 04:45:45;;;;;;;2.00;0.93;;;12.50;99.90;;;;;;5083178;28;20119;-74
2022/08/28 04:48:12;;;;;;;0.95;0.57;;;12.50;99.90;;;;;;5083402;28;20184;-74
2022/08/28 04:50:42;;;;;;;4.47;0.75;;;12.50;99.90;;;;;;5100118;28;20805;-74
2022/08/28 04:53:09;;;;;;;1.40;0.60;;;12.50;99.90;;;;;;5076620;28;20119;-74
2022/08/28 04:55:42;;;;;;;4.47;0.95;;;12.40;99.90;;;;;;5085688;28;20557;-74
2022/08/28 04:58:08;;;;;;;1.67;0.77;;;12.40;99.90;;;;;;5084919;28;20043;-74
2022/08/28 05:00:36;;;;;;;1.95;0.90;;;12.40;99.90;;;;;;5099967;28;20032;-74
2022/08/28 05:03:03;;;;;;;2.25;0.68;;;12.40;99.90;;;;;;5076430;28;20040;-74
2022/08/28 05:05:28;;;;;;;1.58;0.85;;;12.40;99.90;;;;;;5085089;28;20516;-74
2022/08/28 05:07:54;;;;;;;1.45;0.57;;;12.40;99.90;;;;;;5083765;28;20048;-74
2022/08/28 05:10:20;;;;;;;1.02;0.57;;;12.40;99.90;;;;;;5096010;28;20075;-74
2022/08/28 05:12:45;;;;;;;3.35;1.08;;;12.40;99.90;;;;;;5081912;28;20516;-74
2022/08/28 05:15:12;;;;;;;2.38;0.90;;;12.40;99.90;;;;;;5101118;28;20040;-74
2022/08/28 05:17:38;;;;;;;2.70;1.10;;;12.50;99.90;;;;;;5083845;28;20097;-74
2022/08/28 05:20:04;;;;;;;0.52;0.40;;;12.50;99.90;;;;;;5098820;28;20040;-74
2022/08/28 05:22:31;;;;;;;2.00;0.70;;;12.50;99.90;;;;;;5097011;28;20143;-74
2022/08/28 05:24:59;;;;;;;1.73;0.82;;;12.50;99.90;;;;;;5083535;28;20036;-74
2022/08/28 05:27:25;;;;;;;1.58;0.73;;;12.50;99.90;;;;;;5084219;28;20383;-74
2022/08/28 05:29:52;;;;;;;1.48;0.70;;;12.50;99.90;;;;;;5084316;28;20032;-74
2022/08/28 05:32:19;;;;;;;1.70;0.60;;;12.50;99.90;;;;;;5065489;28;20032;-74
2022/08/28 05:34:45;;;;;;;5.20;0.98;;;12.50;99.90;;;;;;5094531;28;20119;-74
2022/08/28 05:37:11;;;;;;;1.40;0.70;;;12.50;99.90;;;;;;5083653;28;20482;-74
2022/08/28 05:39:37;;;;;;;3.13;0.95;;;12.60;99.90;;;;;;5082372;28;20493;-74
2022/08/28 05:42:03;;;;;;;2.72;0.77;;;12.60;99.90;;;;;;5082674;28;20136;-74
2022/08/28 05:44:28;;;;;;;2.85;1.00;;;12.60;99.90;;;;;;5083173;28;20078;-74
2022/08/28 05:46:54;;;;;;;2.25;0.77;;;12.60;99.90;;;;;;5067143;28;20071;-74
2022/08/28 05:49:20;;;;;;;2.58;1.02;;;12.70;99.90;;;;;;5083524;28;20031;-74
2022/08/28 05:51:47;;;;;;;2.17;1.15;;;12.70;99.90;;;;;;5098867;28;20063;-74
2022/08/28 05:54:14;;;;;;;3.40;1.33;;;12.70;99.90;;;;;;5080616;28;20048;-74
2022/08/28 05:56:41;;;;;;;2.88;0.63;;;12.80;99.90;;;;;;5082157;28;20485;-74
2022/08/28 05:59:07;;;;;;;2.50;0.68;;;12.70;99.90;;;;;;5084652;28;20082;-74
2022/08/28 06:01:37;;;;;;;4.00;0.70;;;12.80;99.90;;;;;;5083182;28;20093;-74
2022/08/28 06:04:25;;;;;;;2.50;0.75;;;12.80;99.90;;;;;;5080293;28;20043;-74
2022/08/28 06:06:51;;;;;;;4.97;1.02;;;12.80;99.90;;;;;;5084416;28;20646;-74
2022/08/28 06:09:27;;;;;;;2.35;0.80;;;12.90;99.90;;;;;;5083022;28;20637;-74
2022/08/28 06:11:54;;;;;;;2.53;0.75;;;13.00;99.90;;;;;;5082801;28;20089;-74
2022/08/28 06:14:20;;;;;;;3.97;1.05;;;13.00;99.90;;;;;;5083914;28;20036;-74
2022/08/28 06:16:49;;;;;;;2.05;0.82;;;13.00;99.90;;;;;;5079300;28;20827;-74
2022/08/28 06:19:18;;;;;;;2.45;0.50;;;13.00;99.90;;;;;;5082914;28;20043;-74
2022/08/28 06:21:45;;;;;;;2.97;0.60;;;13.10;99.90;;;;;;5083134;28;20040;-74
2022/08/28 06:24:12;;;;;;;1.00;0.55;;;13.20;99.90;;;;;;5080010;28;20097;-74
2022/08/28 06:26:38;;;;;;;3.97;0.95;;;13.20;99.90;;;;;;5064933;28;20162;-74
2022/08/28 06:29:06;;;;;;;1.80;0.82;;;13.30;99.90;;;;;;5081565;28;20040;-74
2022/08/28 06:31:33;;;;;;;4.68;0.80;;;13.30;99.90;;;;;;5082874;28;20039;-74
2022/08/28 06:33:59;;;;;;;3.70;1.05;;;13.30;99.90;;;;;;5080440;28;20402;-74
2022/08/28 06:36:27;;;;;;;1.05;0.50;;;13.40;99.90;;;;;;5080867;28;20077;-74
2022/08/28 06:38:54;;;;;;;3.75;1.15;;;13.40;99.90;;;;;;5080035;28;20052;-74
2022/08/28 06:41:20;;;;;;;1.58;0.95;;;13.50;99.90;;;;;;5076569;28;20036;-74
2022/08/28 06:43:46;;;;;;;3.03;0.80;;;13.50;99.90;;;;;;5093277;28;20048;-74
2022/08/28 06:46:12;;;;;;;6.43;0.95;;;13.60;99.90;;;;;;5077934;28;20055;-74
2022/08/28 06:48:38;;;;;;;1.75;0.70;;;13.60;99.90;;;;;;5081561;28;20043;-74
2022/08/28 06:51:08;;;;;;;1.55;0.77;;;13.70;99.90;;;;;;5081297;28;20047;-74
2022/08/28 06:53:35;;;;;;;2.85;0.95;;;13.80;99.90;;;;;;5064009;28;20032;-74
2022/08/28 06:56:08;;;;;;;2.38;0.70;;;13.80;99.90;;;;;;5081766;28;20036;-73
2022/08/28 06:58:36;;;;;;;1.20;0.50;;;14.00;99.90;;;;;;5080425;28;20089;-74
2022/08/28 07:01:12;;;;;;;1.60;0.68;;;14.10;99.90;;;;;;5077735;28;20036;-74
2022/08/28 07:03:39;;;;;;;1.42;0.40;;;14.20;99.90;;;;;;5095183;28;20046;-74
2022/08/28 07:06:06;;;;;;;7.47;0.60;;;14.30;99.90;;;;;;5081123;28;20397;-74
2022/08/28 07:08:33;;;;;;;1.45;0.55;;;14.40;99.90;;;;;;5078958;28;20698;-73
2022/08/28 07:10:59;;;;;;;3.30;0.60;;;14.50;99.90;;;;;;5084056;28;20043;-74
2022/08/28 07:13:25;;;;;;;1.92;0.47;;;14.60;99.90;;;;;;5075046;28;20055;-74
2022/08/28 07:15:51;;;;;;;2.35;0.70;;;14.70;99.90;;;;;;5078631;28;20036;-74
2022/08/28 07:18:17;;;;;;;1.63;0.77;;;14.80;99.90;;;;;;5085334;28;20032;-74
2022/08/28 07:20:44;;;;;;;9.75;0.70;;;14.90;99.90;;;;;;5078564;28;20068;-75
2022/08/28 07:23:09;;;;;;;1.00;0.30;;;15.00;99.90;;;;;;5076985;28;20099;-74
2022/08/28 07:25:40;;;;;;;4.60;0.60;;;15.10;99.90;;;;;;5080720;28;20082;-74
2022/08/28 07:28:06;;;;;;;1.33;0.68;;;15.20;99.90;;;;;;5077337;28;20454;-74
2022/08/28 07:30:32;;;;;;;5.00;0.40;;;15.30;99.90;;;;;;5079083;28;20037;-75
2022/08/28 07:32:58;;;;;;;0.60;0.20;;;15.40;99.90;;;;;;5097623;28;20113;-75
2022/08/28 07:35:23;;;;;;;2.40;0.50;;;15.60;99.90;;;;;;5080053;28;20051;-74
2022/08/28 07:37:49;;;;;;;1.63;0.40;;;15.60;99.90;;;;;;5078850;28;20513;-74
2022/08/28 07:40:15;;;;;;;1.00;0.43;;;15.70;99.90;;;;;;5078755;28;20036;-74
2022/08/28 07:45:28;;;;;;;0.90;0.30;;;15.90;99.90;;;;;;5098654;28;20040;-75
2022/08/28 07:47:54;;;;;;;1.55;0.50;;;16.00;99.90;;;;;;5065077;28;20518;-75
2022/08/28 07:50:20;;;;;;;1.67;0.40;;;16.20;99.90;;;;;;5095412;28;20032;-75
2022/08/28 07:52:45;;;;;;;0.40;0.20;;;16.30;99.90;;;;;;5081738;28;20568;-74
2022/08/28 07:55:11;;;;;;;0.80;0.38;;;16.40;99.90;;;;;;5080697;28;20040;-75
2022/08/28 07:57:36;;;;;;;4.65;0.55;;;16.40;99.70;;;;;;5082778;28;20036;-75
2022/08/28 08:00:03;;;;;;;1.27;0.40;;;16.40;99.50;;;;;;5063739;28;20039;-75
2022/08/28 08:02:29;;;;;;;2.47;0.57;;;16.40;99.50;;;;;;5096056;28;20486;-74
2022/08/28 08:04:55;;;;;;;1.67;0.20;;;16.30;99.50;;;;;;5085536;28;20050;-74
2022/08/28 08:07:21;;;;;;;2.95;0.40;;;16.30;99.50;;;;;;5083544;28;20086;-72
2022/08/28 08:09:46;;;;;;;4.18;0.45;;;16.20;99.50;;;;;;5090794;27;20472;-73
2022/08/28 08:12:13;;;;;;;0.98;0.30;;;16.20;99.10;;;;;;5096599;27;20317;-74
2022/08/28 08:14:41;;;;;;;1.70;0.70;;;16.20;99.20;;;;;;5096554;28;20071;-73
2022/08/28 08:17:08;;;;;;;3.85;0.60;;;16.30;99.30;;;;;;5090933;27;20092;-73
2022/08/28 08:19:33;;;;;;;1.65;0.47;;;16.40;98.90;;;;;;5079423;28;20089;-73
2022/08/28 08:22:00;;;;;;;3.20;0.38;;;16.50;98.10;;;;;;5075395;28;20056;-74
2022/08/28 08:24:29;;;;;;;2.03;0.50;;;16.50;97.80;;;;;;5091621;28;20048;-73
2022/08/28 08:26:58;;;;;;;2.40;0.60;;;16.70;97.20;;;;;;5065198;28;20048;-74
2022/08/28 08:29:24;;;;;;;2.45;0.50;;;16.70;97.00;;;;;;5078262;28;20185;-73
2022/08/28 08:32:03;;;;;;;0.88;0.40;;;16.80;96.80;;;;;;5096993;28;20485;-73
2022/08/28 08:34:29;;;;;;;0.70;0.38;;;16.90;96.50;;;;;;5083254;28;20092;-73
2022/08/28 08:36:55;;;;;;;0.95;0.38;;;17.00;96.30;;;;;;5085325;28;20052;-73
2022/08/28 08:39:21;;;;;;;2.30;0.35;;;17.00;96.00;;;;;;5081440;28;20469;-73
2022/08/28 08:41:50;;;;;;;2.28;0.25;;;17.20;95.70;;;;;;5079876;28;20036;-73
2022/08/28 08:44:28;;;;;;;0.88;0.30;;;17.20;94.50;;;;;;5066223;28;20036;-73
2022/08/28 08:47:07;;;;;;;2.42;0.57;;;17.40;92.00;;;;;;5101383;28;20036;-73
2022/08/28 08:49:37;;;;;;;1.17;0.40;;;17.40;92.60;;;;;;5080550;28;20138;-73
2022/08/28 08:52:28;;;;;;;1.38;0.43;;;17.50;93.40;;;;;;5081468;28;20036;-73
2022/08/28 08:55:02;;;;;;;2.35;0.60;;;17.50;92.90;;;;;;5083129;28;21307;-73
2022/08/28 08:57:29;;;;;;;1.55;0.40;;;17.50;93.70;;;;;;5066118;28;20035;-73
2022/08/28 08:59:55;;;;;;;0.80;0.40;;;17.60;94.10;;;;;;5079059;28;20051;-73
2022/08/28 09:02:26;;;;;;;0.70;0.22;;;17.60;94.20;;;;;;5089278;28;20050;-73
2022/08/28 09:05:03;;;;;;;2.25;0.63;;;17.60;93.80;;;;;;5078618;28;20038;-73
2022/08/28 09:07:47;;;;;;;2.53;0.30;;;17.70;93.10;;;;;;5090993;28;20044;-72
2022/08/28 09:10:14;;;;;;;2.45;0.43;;;17.80;91.80;;;;;;5077994;28;20039;-73
2022/08/28 09:12:55;;;;;;;1.73;0.50;;;17.80;93.10;;;;;;5083372;28;20071;-73
2022/08/28 09:15:32;;;;;;;1.27;0.40;;;17.90;91.50;;;;;;5095487;28;20032;-74
2022/08/28 09:18:22;;;;;;;0.95;0.30;;;17.90;91.50;;;;;;5075018;28;20458;-73
2022/08/28 09:20:53;;;;;;;3.72;0.90;;;18.00;88.50;;;;;;5076286;28;20035;-74
2022/08/28 09:23:21;;;;;;;2.28;0.52;;;18.00;91.30;;;;;;5077695;28;20216;-74
2022/08/28 09:26:00;;;;;;;1.88;0.90;;;18.00;91.60;;;;;;5063962;28;20040;-74
2022/08/28 09:28:33;;;;;;;2.95;0.35;;;18.00;91.70;;;;;;5097707;28;20037;-74
2022/08/28 09:31:04;;;;;;;1.05;0.45;;;18.10;91.80;;;;;;5097892;28;20036;-74
2022/08/28 09:33:35;;;;;;;2.35;0.40;;;18.20;90.10;;;;;;5084876;28;20028;-73
2022/08/28 09:36:19;;;;;;;1.25;0.50;;;18.20;91.00;;;;;;5081091;28;20649;-80
2022/08/28 09:38:45;;;;;;;4.35;0.52;;;18.20;89.90;;;;;;5097482;28;20692;-74
2022/08/28 09:43:55;;;;;;;4.18;0.82;;;18.10;91.90;;;;;;5079015;28;20090;-74
2022/08/28 09:46:28;;;;;;;0.88;0.38;;;18.00;91.20;;;;;;5098108;28;20071;-74
2022/08/28 09:49:13;;;;;;;1.40;0.52;;;18.00;91.20;;;;;;5077414;28;20239;-75
2022/08/28 09:51:39;;;;;;;1.13;0.40;;;18.00;88.80;;;;;;5079531;28;20032;-73
2022/08/28 09:54:17;;;;;;;1.27;0.50;;;18.20;90.70;;;;;;5096657;28;20069;-73
2022/08/28 09:56:43;;;;;;;1.40;0.50;;;18.30;90.30;;;;;;5096337;28;20461;-73
2022/08/28 09:59:18;;;;;;;1.90;0.40;;;18.30;90.00;;;;;;5100130;28;20040;-73
2022/08/28 10:02:10;;;;;;;1.17;0.40;;;18.20;88.60;;;;;;5078609;28;20043;-73
2022/08/28 10:04:46;;;;;;;0.88;0.40;;;18.20;88.70;;;;;;5084588;28;20548;-78
2022/08/28 10:07:23;;;;;;;0.93;0.50;;;18.10;89.10;;;;;;5061228;28;20036;-73
2022/08/28 10:10:15;;;;;;;2.05;0.55;;;18.20;89.20;;;;;;5076335;28;20112;-73
2022/08/28 10:13:08;;;;;;;0.73;0.22;;;18.10;85.80;;;;;;5063636;28;20036;-72
2022/08/28 10:15:40;;;;;;;2.40;0.68;;;18.10;86.20;;;;;;5085548;28;20119;-73
2022/08/28 10:18:28;;;;;;;1.48;0.40;;;18.10;88.10;;;;;;5089260;28;20044;-73
2022/08/28 10:21:13;;;;;;;0.85;0.43;;;18.30;88.10;;;;;;5076929;28;20567;-72
2022/08/28 10:24:04;;;;;;;0.65;0.32;;;18.40;86.00;;;;;;5075002;28;20097;-72
2022/08/28 10:26:49;;;;;;;1.00;0.38;;;18.40;82.90;;;;;;5082195;28;20051;-73
2022/08/28 10:29:37;;;;;;;0.98;0.38;;;18.40;85.40;;;;;;5080163;28;20512;-73
2022/08/28 10:32:12;;;;;;;0.80;0.47;;;18.40;81.10;;;;;;5079480;28;20028;-72
2022/08/28 10:34:45;;;;;;;0.65;0.30;;;18.40;85.00;;;;;;5081050;28;20385;-72
2022/08/28 10:37:23;;;;;;;1.33;0.60;;;18.30;84.30;;;;;;5082190;28;20043;-73
2022/08/28 10:40:02;;;;;;;1.02;0.50;;;18.20;83.70;;;;;;5080941;28;20036;-72
2022/08/28 10:42:36;;;;;;;0.60;0.30;;;18.20;86.40;;;;;;5078647;28;20497;-76
2022/08/28 10:45:15;;;;;;;0.98;0.43;;;18.30;86.50;;;;;;5065017;28;20052;-73
2022/08/28 10:47:45;;;;;;;0.50;0.30;;;18.40;84.90;;;;;;5065267;28;20055;-72
2022/08/28 10:50:20;;;;;;;1.30;0.50;;;18.50;84.00;;;;;;5083444;28;20096;-73
2022/08/28 10:53:07;;;;;;;0.70;0.25;;;18.50;84.20;;;;;;5069312;28;20035;-73
2022/08/28 10:55:55;;;;;;;0.77;0.38;;;18.50;85.70;;;;;;5079846;28;20044;-73
2022/08/28 10:58:23;;;;;;;2.08;0.50;;;18.50;81.80;;;;;;5059068;28;20042;-71
2022/08/28 11:00:50;;;;;;;1.33;0.38;;;18.50;85.20;;;;;;5063569;28;20089;-72
2022/08/28 11:03:21;;;;;;;1.52;0.57;;;18.60;84.30;;;;;;5058157;28;20036;-72
2022/08/28 11:05:55;;;;;;;2.88;0.70;;;18.70;84.10;;;;;;5071146;28;20036;-73
2022/08/28 11:08:34;;;;;;;0.60;0.28;;;18.70;81.60;;;;;;5080137;28;20036;-72
2022/08/28 11:11:02;;;;;;;1.75;0.40;;;18.60;83.30;;;;;;5080331;28;20040;-79
2022/08/28 11:13:44;;;;;;;0.93;0.30;;;18.70;84.00;;;;;;5063381;28;20521;-71
2022/08/28 11:16:23;;;;;;;0.63;0.20;;;18.60;81.60;;;;;;5075796;28;20115;-72
2022/08/28 11:19:16;;;;;;;2.95;0.85;;;18.60;81.20;;;;;;5057737;28;20044;-72
2022/08/28 11:21:45;;;;;;;0.73;0.43;;;18.60;80.60;;;;;;5086479;28;20066;-72
2022/08/28 11:24:29;;;;;;;1.55;0.57;;;18.50;83.50;;;;;;5103413;28;20377;-72
2022/08/28 11:27:04;;;;;;;1.52;0.40;;;18.50;82.20;;;;;;5086794;28;20105;-72
2022/08/28 11:29:59;;;;;;;1.25;0.43;;;18.80;84.00;;;;;;5103497;28;20044;-72
2022/08/28 11:32:30;;;;;;;1.30;0.32;;;18.90;80.00;;;;;;5104003;27;20044;-72
2022/08/28 11:35:11;;;;;;;1.48;0.40;;;18.90;80.10;;;;;;5108054;28;20039;-72
2022/08/28 11:37:50;;;;;;;0.68;0.30;;;18.90;80.20;;;;;;5106416;28;20043;-72
2022/08/28 11:40:40;;;;;;;1.02;0.50;;;18.90;81.20;;;;;;5087950;28;20182;-72
2022/08/28 11:43:14;;;;;;;3.88;0.50;;;18.90;81.60;;;;;;5091959;28;20600;-72
2022/08/28 11:45:46;;;;;;;0.90;0.40;;;19.10;80.00;;;;;;5108393;28;20466;-72
2022/08/28 11:48:24;;;;;;;1.75;0.50;;;19.10;80.00;;;;;;5107751;28;20108;-72
2022/08/28 11:51:17;;;;;;;2.30;0.47;;;19.20;76.40;;;;;;5090588;28;20040;-73
2022/08/28 11:53:46;;;;;;;1.92;0.50;;;19.20;77.80;;;;;;5089072;28;20401;-72
2022/08/28 11:56:28;;;;;;;1.13;0.30;;;19.20;80.30;;;;;;5087776;28;20034;-72
2022/08/28 11:59:04;;;;;;;1.10;0.50;;;19.20;76.80;;;;;;5084076;28;20040;-72
2022/08/28 12:01:34;;;;;;;0.63;0.40;;;19.20;78.20;;;;;;5107360;28;20044;-72
2022/08/28 12:04:11;;;;;;;2.40;0.55;;;19.20;80.30;;;;;;5090182;28;20039;-72
2022/08/28 12:07:20;;;;;;;1.38;0.30;;;19.10;79.10;;;;;;5105838;28;20076;-72
2022/08/28 12:09:48;;;;;;;1.85;0.45;;;19.20;76.80;;;;;;5062379;28;20131;-72
2022/08/28 12:12:20;;;;;;;3.53;0.60;;;19.30;76.70;;;;;;5089278;28;20516;-72
2022/08/28 12:14:45;;;;;;;1.02;0.28;;;19.20;73.50;;;;;;5107593;28;20125;-72
2022/08/28 12:17:29;;;;;;;1.52;0.47;;;19.20;78.10;;;;;;5087640;28;20128;-72
2022/08/28 12:20:03;;;;;;;2.40;0.60;;;19.10;75.30;;;;;;5090072;28;20496;-72
2022/08/28 12:22:46;;;;;;;3.10;0.57;;;19.20;76.40;;;;;;5106115;28;20062;-72
2022/08/28 12:25:34;;;;;;;2.33;0.50;;;19.10;71.70;;;;;;5107170;28;20051;-72
2022/08/28 12:28:13;;;;;;;1.13;0.30;;;19.10;70.20;;;;;;5090042;28;20514;-72
2022/08/28 12:30:54;;;;;;;2.58;1.20;;;19.10;75.90;;;;;;5089616;28;20034;-72
2022/08/28 12:33:54;;;;;;;1.75;0.70;;;19.20;75.50;;;;;;5091531;28;20051;-72
2022/08/28 12:36:25;;;;;;;1.98;0.70;;;19.20;70.80;;;;;;5091372;28;20036;-72
2022/08/28 12:38:53;;;;;;;0.98;0.40;;;19.30;74.40;;;;;;5089461;28;20074;-72
2022/08/28 12:41:21;;;;;;;0.98;0.32;;;19.40;74.70;;;;;;5088711;28;20028;-72
2022/08/28 12:43:50;;;;;;;2.08;0.47;;;19.50;75.40;;;;;;5088521;28;20107;-72
2022/08/28 12:46:31;;;;;;;2.58;0.38;;;19.50;72.90;;;;;;5107127;28;20088;-72
2022/08/28 12:49:02;;;;;;;3.05;0.45;;;19.50;72.50;;;;;;5106609;28;20556;-73
2022/08/28 12:51:34;;;;;;;1.95;0.50;;;19.40;73.20;;;;;;5105462;28;20040;-72
2022/08/28 12:54:05;;;;;;;1.35;0.50;;;19.30;75.00;;;;;;5088072;28;20121;-72
2022/08/28 12:56:34;;;;;;;4.30;0.70;;;19.30;74.70;;;;;;5106361;28;20040;-72
2022/08/28 12:59:31;;;;;;;3.47;0.50;;;19.30;75.20;;;;;;5072680;28;20516;-72
2022/08/28 13:02:14;;;;;;;0.85;0.35;;;19.30;72.60;;;;;;5089226;28;20032;-72
2022/08/28 13:04:50;;;;;;;2.17;0.57;;;19.30;74.50;;;;;;5085867;28;20044;-72
2022/08/28 13:07:23;;;;;;;2.22;0.40;;;19.40;75.00;;;;;;5090776;28;20040;-72
2022/08/28 13:09:54;;;;;;;1.13;0.50;;;19.30;74.50;;;;;;5106062;28;20046;-72
2022/08/28 13:12:29;;;;;;;1.02;0.40;;;19.30;73.40;;;;;;5105929;28;20093;-72